createdAt,value
2018-03-29T00:01:30.328Z,1.04
2018-03-29T00:03:57.958Z,1.01
2018-03-29T00:06:25.553Z,1.00
2018-03-29T00:08:53.155Z,1.00
2018-03-29T00:11:20.792Z,1.00
2018-03-29T00:13:48.426Z,1.01
2018-03-29T00:16:16.025Z,0.96
2018-03-29T00:18:43.668Z,0.95
2018-03-29T00:21:11.247Z,0.87
2018-03-29T00:23:38.851Z,0.90
2018-03-29T00:26:06.485Z,0.85
2018-03-29T00:28:34.086Z,0.88
2018-03-29T00:31:01.936Z,0.87
2018-03-29T00:33:29.606Z,0.87
2018-03-29T00:35:57.207Z,0.91
2018-03-29T00:38:24.820Z,0.95
2018-03-29T00:40:52.458Z,0.99
2018-03-29T00:43:20.070Z,0.98
2018-03-29T00:45:47.675Z,1.03
2018-03-29T00:48:15.314Z,1.07
2018-03-29T00:50:42.918Z,1.06
2018-03-29T00:53:22.346Z,1.13
2018-03-29T00:55:49.948Z,1.19
2018-03-29T00:58:17.546Z,1.23
2018-03-29T01:00:45.194Z,1.24
2018-03-29T01:03:12.800Z,1.28
2018-03-29T01:05:40.402Z,1.31
2018-03-29T01:08:08.058Z,1.32
2018-03-29T01:10:35.765Z,1.36
2018-03-29T01:13:03.362Z,1.40
2018-03-29T01:15:31.010Z,1.39
2018-03-29T01:17:58.623Z,1.33
2018-03-29T01:20:26.225Z,1.29
2018-03-29T01:22:53.862Z,1.19
2018-03-29T01:25:21.466Z,1.21
2018-03-29T01:27:49.061Z,1.21
2018-03-29T01:30:16.704Z,1.17
2018-03-29T01:32:44.307Z,1.19
2018-03-29T01:35:11.903Z,1.17
2018-03-29T01:37:39.542Z,1.10
2018-03-29T01:40:07.142Z,1.03
2018-03-29T01:42:34.761Z,0.98
2018-03-29T01:45:02.391Z,0.73
2018-03-29T01:47:30.003Z,0.71
2018-03-29T01:49:57.597Z,0.76
2018-03-29T01:52:25.232Z,0.83
2018-03-29T01:54:52.827Z,0.74
2018-03-29T01:57:20.425Z,0.73
2018-03-29T01:59:48.053Z,0.71
2018-03-29T02:02:15.647Z,0.76
2018-03-29T02:04:43.243Z,0.83
2018-03-29T02:07:10.877Z,0.89
2018-03-29T02:09:38.489Z,0.95
2018-03-29T02:12:06.087Z,0.98
2018-03-29T02:14:33.718Z,0.95
2018-03-29T02:17:01.322Z,0.98
2018-03-29T02:19:28.917Z,1.05
2018-03-29T02:21:56.578Z,1.01
2018-03-29T02:24:24.200Z,0.97
2018-03-29T02:26:51.794Z,0.94
2018-03-29T02:29:19.538Z,0.77
2018-03-29T02:31:47.132Z,0.78
2018-03-29T02:34:14.741Z,0.80
2018-03-29T02:36:42.379Z,0.78
2018-03-29T02:39:09.976Z,0.84
2018-03-29T02:41:37.605Z,0.92
2018-03-29T02:44:05.243Z,0.92
2018-03-29T02:46:32.852Z,1.00
2018-03-29T02:49:00.456Z,1.03
2018-03-29T02:51:28.134Z,1.02
2018-03-29T02:53:55.731Z,1.04
2018-03-29T02:56:23.331Z,1.03
2018-03-29T02:58:50.963Z,1.04
2018-03-29T03:01:18.558Z,0.98
2018-03-29T03:03:46.163Z,0.88
2018-03-29T03:06:13.799Z,0.89
2018-03-29T03:08:41.396Z,0.86
2018-03-29T03:11:08.998Z,0.83
2018-03-29T03:13:36.706Z,0.81
2018-03-29T03:16:04.369Z,0.80
2018-03-29T03:18:31.966Z,0.68
2018-03-29T03:20:59.592Z,0.65
2018-03-29T03:23:27.193Z,0.56
2018-03-29T03:25:54.795Z,0.47
2018-03-29T03:28:22.458Z,0.39
2018-03-29T03:30:50.091Z,0.20
2018-03-29T03:33:17.684Z,0.22
2018-03-29T03:35:45.315Z,0.31
2018-03-29T03:38:12.905Z,0.36
2018-03-29T03:40:40.508Z,0.39
2018-03-29T03:43:08.149Z,0.35
2018-03-29T03:45:35.744Z,0.40
2018-03-29T03:48:03.345Z,0.38
2018-03-29T03:50:30.987Z,0.37
2018-03-29T03:52:58.584Z,0.39
2018-03-29T03:55:26.176Z,0.44
2018-03-29T03:57:53.800Z,0.43
2018-03-29T04:00:21.392Z,0.40
2018-03-29T04:02:48.989Z,0.46
2018-03-29T04:05:16.620Z,0.49
2018-03-29T04:07:44.221Z,0.54
2018-03-29T04:10:11.825Z,0.56
2018-03-29T04:12:39.454Z,0.52
2018-03-29T04:15:07.041Z,0.47
2018-03-29T04:17:34.638Z,0.48
2018-03-29T04:20:02.275Z,0.49
2018-03-29T04:22:29.874Z,0.51
2018-03-29T04:24:57.473Z,0.60
2018-03-29T04:27:25.113Z,0.51
2018-03-29T04:29:52.712Z,0.49
2018-03-29T04:32:20.320Z,0.37
2018-03-29T04:34:47.946Z,0.19
2018-03-29T04:37:15.540Z,0.09
2018-03-29T04:39:43.148Z,0.08
2018-03-29T04:42:10.784Z,0.04
2018-03-29T04:44:38.393Z,0.13
2018-03-29T04:47:06.023Z,0.18
2018-03-29T04:49:33.664Z,0.28
2018-03-29T04:52:01.279Z,0.29
2018-03-29T04:54:28.888Z,0.40
2018-03-29T04:56:56.543Z,0.57
2018-03-29T04:59:24.124Z,0.56
2018-03-29T05:01:51.724Z,0.64
2018-03-29T05:04:19.366Z,0.85
2018-03-29T05:06:46.955Z,0.98
2018-03-29T05:09:14.549Z,1.10
2018-03-29T05:11:42.191Z,1.25
2018-03-29T05:14:09.786Z,1.47
2018-03-29T05:16:37.667Z,1.75
2018-03-29T05:19:05.307Z,2.05
2018-03-29T05:21:32.912Z,2.39
2018-03-29T05:24:00.499Z,2.55
2018-03-29T05:26:28.145Z,2.71
2018-03-29T05:28:55.776Z,2.71
2018-03-29T05:31:23.374Z,2.96
2018-03-29T05:33:51.013Z,3.05
2018-03-29T05:36:18.607Z,3.04
2018-03-29T05:38:46.207Z,3.24
2018-03-29T05:41:13.834Z,3.53
2018-03-29T05:43:41.436Z,3.91
2018-03-29T05:46:09.025Z,4.49
2018-03-29T05:48:36.719Z,5.56
2018-03-29T05:51:04.321Z,6.86
2018-03-29T05:53:31.910Z,8.08
2018-03-29T05:55:59.554Z,9.49
2018-03-29T05:58:27.156Z,10.14
2018-03-29T06:00:54.751Z,11.21
2018-03-29T06:03:22.392Z,11.83
2018-03-29T06:05:50.009Z,12.27
2018-03-29T06:08:17.627Z,12.55
2018-03-29T06:10:45.266Z,13.37
2018-03-29T06:13:12.875Z,13.87
2018-03-29T06:15:40.474Z,14.11
2018-03-29T06:18:08.150Z,14.07
2018-03-29T06:20:35.748Z,14.84
2018-03-29T06:23:03.344Z,14.96
2018-03-29T06:25:30.976Z,15.22
2018-03-29T06:27:58.571Z,15.09
2018-03-29T06:30:26.163Z,15.45
2018-03-29T06:32:53.805Z,15.47
2018-03-29T06:35:21.414Z,15.53
2018-03-29T06:37:49.010Z,15.93
2018-03-29T06:40:16.642Z,15.95
2018-03-29T06:42:44.240Z,15.94
2018-03-29T06:45:11.839Z,15.92
2018-03-29T06:47:39.485Z,16.57
2018-03-29T06:50:07.077Z,16.86
2018-03-29T06:52:34.672Z,17.57
2018-03-29T06:55:02.312Z,17.24
2018-03-29T06:57:29.903Z,17.32
2018-03-29T06:59:57.500Z,16.46
2018-03-29T07:02:25.134Z,17.03
2018-03-29T07:04:52.731Z,17.73
2018-03-29T07:07:20.323Z,18.08
2018-03-29T07:09:47.964Z,18.29
2018-03-29T07:12:15.562Z,17.97
2018-03-29T07:14:43.164Z,18.17
2018-03-29T07:17:10.803Z,17.50
2018-03-29T07:19:38.403Z,18.24
2018-03-29T07:22:06.004Z,19.02
2018-03-29T07:24:33.661Z,19.18
2018-03-29T07:27:01.243Z,18.91
2018-03-29T07:29:28.825Z,19.38
2018-03-29T07:31:56.463Z,19.48
2018-03-29T07:34:24.054Z,19.82
2018-03-29T07:36:51.646Z,20.24
2018-03-29T07:39:19.270Z,20.50
2018-03-29T07:41:46.866Z,20.98
2018-03-29T07:44:14.502Z,20.70
2018-03-29T07:46:42.130Z,21.60
2018-03-29T07:49:09.714Z,21.93
2018-03-29T07:51:37.302Z,21.93
2018-03-29T07:54:04.928Z,21.87
2018-03-29T07:56:32.513Z,21.64
2018-03-29T07:59:00.113Z,21.69
2018-03-29T08:01:27.755Z,22.23
2018-03-29T08:03:55.353Z,22.36
2018-03-29T08:06:22.945Z,22.83
2018-03-29T08:08:50.597Z,22.85
2018-03-29T08:11:18.237Z,23.04
2018-03-29T08:13:45.868Z,23.14
2018-03-29T08:16:13.513Z,23.69
2018-03-29T08:18:41.112Z,22.30
2018-03-29T08:21:08.701Z,21.95
2018-03-29T08:23:36.355Z,21.82
2018-03-29T08:26:03.953Z,22.10
2018-03-29T08:28:31.545Z,21.24
2018-03-29T08:31:20.715Z,21.76
2018-03-29T08:33:48.332Z,22.08
2018-03-29T08:36:15.934Z,22.91
2018-03-29T08:38:43.566Z,23.26
2018-03-29T08:41:11.158Z,22.33
2018-03-29T08:43:38.754Z,20.52
2018-03-29T08:46:06.387Z,18.82
2018-03-29T08:48:33.978Z,20.41
2018-03-29T08:51:01.581Z,20.80
2018-03-29T08:53:29.263Z,22.45
2018-03-29T08:55:56.849Z,23.51
2018-03-29T08:58:24.446Z,23.47
2018-03-29T09:00:52.082Z,23.71
2018-03-29T09:03:19.680Z,23.77
2018-03-29T09:05:47.276Z,23.66
2018-03-29T09:08:14.910Z,23.32
2018-03-29T09:10:42.500Z,22.67
2018-03-29T09:13:10.099Z,22.41
2018-03-29T09:15:37.726Z,22.50
2018-03-29T09:18:05.379Z,20.70
2018-03-29T09:20:32.981Z,21.29
2018-03-29T09:23:00.622Z,20.56
2018-03-29T09:25:28.251Z,21.05
2018-03-29T09:27:55.856Z,20.78
2018-03-29T09:30:23.486Z,19.74
2018-03-29T09:32:51.086Z,19.15
2018-03-29T09:35:18.680Z,17.60
2018-03-29T09:37:46.310Z,18.24
2018-03-29T09:40:13.918Z,18.99
2018-03-29T09:42:41.519Z,21.37
2018-03-29T09:45:09.286Z,22.29
2018-03-29T09:47:36.887Z,22.09
2018-03-29T09:50:04.484Z,20.74
2018-03-29T09:52:32.114Z,19.55
2018-03-29T09:54:59.700Z,17.86
2018-03-29T09:57:27.293Z,17.76
2018-03-29T09:59:54.906Z,17.23
2018-03-29T10:02:22.543Z,18.34
2018-03-29T10:04:55.660Z,19.84
2018-03-29T10:07:39.819Z,21.30
2018-03-29T10:10:07.446Z,22.24
2018-03-29T10:12:35.060Z,20.92
2018-03-29T10:15:02.639Z,18.83
2018-03-29T10:17:30.264Z,20.29
2018-03-29T10:19:57.860Z,21.38
2018-03-29T10:22:25.448Z,22.46
2018-03-29T10:24:53.110Z,23.30
2018-03-29T10:27:20.698Z,24.36
2018-03-29T10:29:49.194Z,24.10
2018-03-29T10:32:16.813Z,23.62
2018-03-29T10:34:44.417Z,24.81
2018-03-29T10:37:12.007Z,25.42
2018-03-29T10:39:39.620Z,24.54
2018-03-29T10:42:07.215Z,22.59
2018-03-29T10:44:34.811Z,21.72
2018-03-29T10:47:02.446Z,22.95
2018-03-29T10:49:30.060Z,23.46
2018-03-29T10:51:57.644Z,23.38
2018-03-29T10:54:25.270Z,23.05
2018-03-29T10:56:52.855Z,22.74
2018-03-29T10:59:20.419Z,23.36
2018-03-29T11:01:48.067Z,23.15
2018-03-29T11:04:15.653Z,23.66
2018-03-29T11:06:43.235Z,23.46
2018-03-29T11:09:10.862Z,23.62
2018-03-29T11:11:38.446Z,24.37
2018-03-29T11:14:06.049Z,23.79
2018-03-29T11:16:33.665Z,23.80
2018-03-29T11:19:01.257Z,23.93
2018-03-29T11:21:28.851Z,24.62
2018-03-29T11:23:56.485Z,24.51
2018-03-29T11:26:24.070Z,25.60
2018-03-29T11:28:51.669Z,25.77
2018-03-29T11:31:19.282Z,26.02
2018-03-29T11:33:46.876Z,25.37
2018-03-29T11:36:14.438Z,25.59
2018-03-29T11:38:42.090Z,24.23
2018-03-29T11:41:09.675Z,25.48
2018-03-29T11:43:37.257Z,24.61
2018-03-29T11:46:04.871Z,25.45
2018-03-29T11:48:32.450Z,26.18
2018-03-29T11:51:00.021Z,25.82
2018-03-29T11:53:27.632Z,24.96
2018-03-29T11:55:55.215Z,23.36
2018-03-29T11:58:22.801Z,22.63
2018-03-29T12:00:50.480Z,23.86
2018-03-29T12:03:18.062Z,23.76
2018-03-29T12:05:45.639Z,23.65
2018-03-29T12:08:13.283Z,22.35
2018-03-29T12:10:40.876Z,22.91
2018-03-29T12:13:08.480Z,23.32
2018-03-29T12:15:36.146Z,23.94
2018-03-29T12:18:03.723Z,25.24
2018-03-29T12:20:31.314Z,24.69
2018-03-29T12:22:59.054Z,23.20
2018-03-29T12:25:26.643Z,22.70
2018-03-29T12:27:54.233Z,22.61
2018-03-29T12:30:21.859Z,23.58
2018-03-29T12:32:49.479Z,24.29
2018-03-29T12:35:17.041Z,24.05
2018-03-29T12:37:44.663Z,22.92
2018-03-29T12:40:12.238Z,24.56
2018-03-29T12:42:39.817Z,25.05
2018-03-29T12:45:07.481Z,25.02
2018-03-29T12:47:35.056Z,24.44
2018-03-29T12:50:02.638Z,22.53
2018-03-29T12:52:30.272Z,23.44
2018-03-29T12:55:09.578Z,25.08
2018-03-29T13:00:45.995Z,25.72
2018-03-29T13:03:13.614Z,26.05
2018-03-29T13:05:41.199Z,25.67
2018-03-29T13:08:08.773Z,25.44
2018-03-29T13:10:36.385Z,24.53
2018-03-29T13:13:03.977Z,24.28
2018-03-29T13:15:31.604Z,23.83
2018-03-29T13:17:59.208Z,24.14
2018-03-29T13:20:26.810Z,24.32
2018-03-29T13:22:54.434Z,22.49
2018-03-29T13:25:22.066Z,22.90
2018-03-29T13:27:49.690Z,22.41
2018-03-29T13:30:17.310Z,21.36
2018-03-29T13:32:45.001Z,20.87
2018-03-29T13:35:12.656Z,20.26
2018-03-29T13:37:40.262Z,19.24
2018-03-29T13:40:07.881Z,19.12
2018-03-29T13:42:35.458Z,17.81
2018-03-29T13:45:03.058Z,17.42
2018-03-29T13:47:30.677Z,17.31
2018-03-29T13:49:58.269Z,17.00
2018-03-29T13:52:25.908Z,16.47
2018-03-29T13:54:53.538Z,16.61
2018-03-29T13:57:21.127Z,16.74
2018-03-29T13:59:48.737Z,16.78
2018-03-29T14:02:16.360Z,16.70
2018-03-29T14:04:43.938Z,16.67
2018-03-29T14:07:11.542Z,16.68
2018-03-29T14:09:39.149Z,16.46
2018-03-29T14:12:06.769Z,16.48
2018-03-29T14:14:34.428Z,16.57
2018-03-29T14:17:02.071Z,16.41
2018-03-29T14:19:29.659Z,16.55
2018-03-29T14:21:57.228Z,16.59
2018-03-29T14:24:24.855Z,16.77
2018-03-29T14:26:53.848Z,16.69
2018-03-29T14:29:21.441Z,16.44
2018-03-29T14:31:49.054Z,16.68
2018-03-29T14:34:16.634Z,16.67
2018-03-29T14:36:44.228Z,16.62
2018-03-29T14:39:11.878Z,16.72
2018-03-29T14:41:39.501Z,16.62
2018-03-29T14:44:07.172Z,16.30
2018-03-29T14:46:34.773Z,16.28
2018-03-29T14:49:02.376Z,16.20
2018-03-29T14:51:29.977Z,16.18
2018-03-29T14:53:57.589Z,16.23
2018-03-29T14:56:25.196Z,15.99
2018-03-29T14:58:52.781Z,15.88
2018-03-29T15:01:20.404Z,15.68
2018-03-29T15:03:47.996Z,15.63
2018-03-29T15:06:15.596Z,15.62
2018-03-29T15:08:43.218Z,15.62
2018-03-29T15:11:10.813Z,15.60
2018-03-29T15:13:38.574Z,15.57
2018-03-29T15:16:06.156Z,15.46
2018-03-29T15:18:33.727Z,15.47
2018-03-29T15:21:01.324Z,15.33
2018-03-29T15:23:28.919Z,15.31
2018-03-29T15:25:56.496Z,15.26
2018-03-29T15:28:24.082Z,15.21
2018-03-29T15:30:51.695Z,15.24
2018-03-29T15:33:19.280Z,15.25
2018-03-29T15:35:46.866Z,15.24
2018-03-29T15:38:14.485Z,15.27
2018-03-29T15:40:42.095Z,15.30
2018-03-29T15:43:09.683Z,15.24
2018-03-29T15:45:37.302Z,15.15
2018-03-29T15:48:04.891Z,15.10
2018-03-29T15:50:32.473Z,14.99
2018-03-29T15:53:00.115Z,14.94
2018-03-29T15:55:27.712Z,14.94
2018-03-29T15:57:55.312Z,14.90
2018-03-29T16:00:22.934Z,14.90
2018-03-29T16:02:50.907Z,14.85
2018-03-29T16:05:18.514Z,14.75
2018-03-29T16:07:46.155Z,14.66
2018-03-29T16:10:13.754Z,14.50
2018-03-29T16:12:41.383Z,14.34
2018-03-29T16:15:08.978Z,14.21
2018-03-29T16:17:36.568Z,14.01
2018-03-29T16:20:04.166Z,13.84
2018-03-29T16:22:31.784Z,13.67
2018-03-29T16:24:59.376Z,13.56
2018-03-29T16:27:27.013Z,13.42
2018-03-29T16:29:54.650Z,13.23
2018-03-29T16:32:22.274Z,13.06
2018-03-29T16:34:49.864Z,12.91
2018-03-29T16:37:17.495Z,12.79
2018-03-29T16:39:45.106Z,12.67
2018-03-29T16:42:12.729Z,12.55
2018-03-29T16:44:40.351Z,12.45
2018-03-29T16:47:07.977Z,12.31
2018-03-29T16:49:35.565Z,12.25
2018-03-29T16:52:03.181Z,12.10
2018-03-29T16:54:30.779Z,11.92
2018-03-29T16:56:58.375Z,11.81
2018-03-29T16:59:26.063Z,11.71
2018-03-29T17:01:53.647Z,11.66
2018-03-29T17:04:21.238Z,11.59
2018-03-29T17:06:48.874Z,11.52
2018-03-29T17:09:16.489Z,11.42
2018-03-29T17:11:44.074Z,11.41
2018-03-29T17:14:11.707Z,11.31
2018-03-29T17:16:39.288Z,11.12
2018-03-29T17:19:06.879Z,11.01
2018-03-29T17:21:34.541Z,10.87
2018-03-29T17:24:02.123Z,10.70
2018-03-29T17:26:29.727Z,10.54
2018-03-29T17:28:57.383Z,10.42
2018-03-29T17:31:24.972Z,10.34
2018-03-29T17:33:52.565Z,10.22
2018-03-29T17:36:20.173Z,10.11
2018-03-29T17:38:47.769Z,10.10
2018-03-29T17:41:15.428Z,10.02
2018-03-29T17:43:43.056Z,9.98
2018-03-29T17:46:10.634Z,9.89
2018-03-29T17:48:38.222Z,9.75
2018-03-29T17:51:05.853Z,9.62
2018-03-29T17:53:33.435Z,9.50
2018-03-29T17:56:01.016Z,9.38
2018-03-29T17:58:28.644Z,9.38
2018-03-29T18:00:56.294Z,9.32
2018-03-29T18:03:23.878Z,9.24
2018-03-29T18:05:51.508Z,9.15
2018-03-29T18:08:19.090Z,8.99
2018-03-29T18:10:46.656Z,8.99
2018-03-29T18:13:14.274Z,9.06
2018-03-29T18:15:41.846Z,9.05
2018-03-29T18:18:09.431Z,9.01
2018-03-29T18:20:37.035Z,8.88
2018-03-29T18:23:04.611Z,8.80
2018-03-29T18:25:32.189Z,8.80
2018-03-29T18:27:59.863Z,8.80
2018-03-29T18:30:27.427Z,8.57
2018-03-29T18:32:55.027Z,8.48
2018-03-29T18:35:22.715Z,8.39
2018-03-29T18:37:50.311Z,8.31
2018-03-29T18:40:17.878Z,8.25
2018-03-29T18:42:45.483Z,8.20
2018-03-29T18:45:13.109Z,8.09
2018-03-29T18:47:40.701Z,7.99
2018-03-29T18:50:08.315Z,8.01
2018-03-29T18:52:35.947Z,8.02
2018-03-29T18:55:03.522Z,7.97
2018-03-29T18:57:31.141Z,7.91
2018-03-29T18:59:58.751Z,7.86
2018-03-29T19:02:26.337Z,7.81
2018-03-29T19:04:53.942Z,7.85
2018-03-29T19:07:21.514Z,7.77
2018-03-29T19:09:49.092Z,7.71
2018-03-29T19:12:16.720Z,7.66
2018-03-29T19:14:44.300Z,7.59
2018-03-29T19:17:11.882Z,7.52
2018-03-29T19:19:39.516Z,7.57
2018-03-29T19:22:07.094Z,7.52
2018-03-29T19:24:34.680Z,7.49
2018-03-29T19:27:02.312Z,7.43
2018-03-29T19:29:29.906Z,7.48
2018-03-29T19:31:57.506Z,7.41
2018-03-29T19:34:25.125Z,7.40
2018-03-29T19:36:52.708Z,7.35
2018-03-29T19:39:20.287Z,7.27
2018-03-29T19:41:47.914Z,7.16
2018-03-29T19:44:15.506Z,7.04
2018-03-29T19:46:43.100Z,6.97
2018-03-29T19:49:10.738Z,6.96
2018-03-29T19:51:38.319Z,6.88
2018-03-29T19:54:05.882Z,6.86
2018-03-29T19:56:33.494Z,6.93
2018-03-29T19:59:01.061Z,6.92
2018-03-29T20:01:28.645Z,6.90
2018-03-29T20:03:56.294Z,6.92
2018-03-29T20:06:23.876Z,6.96
2018-03-29T20:08:51.475Z,6.88
2018-03-29T20:11:19.125Z,6.82
2018-03-29T20:13:46.715Z,6.75
2018-03-29T20:16:14.984Z,6.73
2018-03-29T20:18:44.128Z,6.77
2018-03-29T20:21:14.247Z,6.73
2018-03-29T20:23:43.731Z,6.72
2018-03-29T20:26:13.675Z,6.76
2018-03-29T20:28:41.646Z,6.68
2018-03-29T20:31:12.461Z,6.67
2018-03-29T20:33:40.324Z,6.64
2018-03-29T20:36:07.906Z,6.61
2018-03-29T20:38:35.669Z,6.59
2018-03-29T20:41:03.299Z,6.51
2018-03-29T20:43:30.881Z,6.51
2018-03-29T20:45:58.478Z,6.47
2018-03-29T20:48:26.089Z,6.38
2018-03-29T20:50:53.679Z,6.27
2018-03-29T20:53:21.268Z,6.17
2018-03-29T20:55:48.972Z,6.07
2018-03-29T20:58:16.550Z,6.02
2018-03-29T21:00:44.142Z,5.91
2018-03-29T21:03:11.760Z,5.83
2018-03-29T21:05:39.350Z,5.77
2018-03-29T21:08:06.935Z,5.79
2018-03-29T21:10:34.567Z,5.74
2018-03-29T21:13:02.154Z,5.67
2018-03-29T21:15:29.738Z,5.62
2018-03-29T21:17:57.365Z,5.56
2018-03-29T21:20:24.950Z,5.54
2018-03-29T21:22:52.517Z,5.49
2018-03-29T21:25:20.146Z,5.42
2018-03-29T21:27:47.719Z,5.37
2018-03-29T21:30:15.310Z,5.30
2018-03-29T21:32:42.944Z,5.31
2018-03-29T21:35:10.593Z,5.33
2018-03-29T21:37:38.183Z,5.35
2018-03-29T21:40:05.816Z,5.30
2018-03-29T21:42:33.414Z,5.28
2018-03-29T21:45:01.035Z,5.67
2018-03-29T21:47:28.797Z,5.97
2018-03-29T21:49:56.358Z,6.62
2018-03-29T21:52:23.951Z,7.03
2018-03-29T21:54:51.628Z,7.09
2018-03-29T21:57:19.214Z,7.17
2018-03-29T21:59:46.797Z,7.34
2018-03-29T22:02:14.413Z,7.38
2018-03-29T22:04:42.023Z,7.44
2018-03-29T22:07:09.642Z,7.19
2018-03-29T22:09:37.272Z,6.91
2018-03-29T22:12:04.871Z,6.66
2018-03-29T22:14:32.467Z,6.57
2018-03-29T22:17:00.112Z,6.43
2018-03-29T22:19:27.717Z,6.21
2018-03-29T22:21:55.313Z,6.04
2018-03-29T22:24:22.935Z,5.93
2018-03-29T22:26:50.535Z,5.87
2018-03-29T22:29:18.134Z,5.74
2018-03-29T22:31:45.761Z,5.59
2018-03-29T22:34:13.406Z,5.48
2018-03-29T22:36:41.018Z,5.42
2018-03-29T22:39:08.763Z,5.42
2018-03-29T22:41:36.347Z,5.42
2018-03-29T22:44:03.948Z,5.38
2018-03-29T22:46:31.571Z,5.59
2018-03-29T22:48:59.196Z,5.50
2018-03-29T22:51:26.785Z,5.70
2018-03-29T22:53:54.460Z,5.93
2018-03-29T22:56:22.050Z,5.85
2018-03-29T22:58:49.640Z,5.78
2018-03-29T23:01:17.267Z,5.57
2018-03-29T23:03:44.851Z,5.46
2018-03-29T23:06:12.443Z,5.38
2018-03-29T23:08:40.076Z,5.32
2018-03-29T23:11:07.662Z,5.22
2018-03-29T23:13:35.254Z,5.09
2018-03-29T23:16:02.898Z,5.17
2018-03-29T23:18:30.492Z,5.24
2018-03-29T23:20:58.089Z,5.23
2018-03-29T23:23:25.718Z,5.25
2018-03-29T23:25:53.291Z,5.30
2018-03-29T23:28:20.883Z,5.39
2018-03-29T23:30:48.548Z,5.52
2018-03-29T23:33:16.133Z,5.70
2018-03-29T23:35:43.740Z,5.92
2018-03-29T23:38:11.372Z,6.11
2018-03-29T23:40:38.987Z,6.09
2018-03-29T23:43:06.607Z,5.96
2018-03-29T23:45:34.271Z,5.79
2018-03-29T23:48:01.918Z,5.62
2018-03-29T23:50:29.521Z,5.59
2018-03-29T23:52:57.183Z,5.48
2018-03-29T23:55:24.820Z,5.40
2018-03-29T23:58:04.322Z,5.26
